Airfield :
LOGIN :

Register | Disclaimer

   EN    FR    IT 

 










Legend :    VFR   Marginal VFR   IFR   Intensive IFR   Very Intensive IFR
Visi :
Ceiling :
>= 8 km
>= 3000ft
5 to 8 km
1000 to 3000 ft
1500m to 5 km
500 to 1000 ft
800 to 1500m
200 to 500 ft
< 800m
< 200 ft
Symbols :   Thunderstorms  Fog  Heavy snow  Heavy precipitations  Wind > 20 kt
SIGMETs :     Misc.  Thunderstorms  Icing  Turbulence  Mountain Waves  Volcanic Ashes







- Airport Elevation : 1504 ft
- IATA code : PNA


LEPP - Noain Pamplona

CURRENT METAR :
  • 250930Z 24001KT 9999 FEW045 24/16 Q1017

EXPIRED METARs :
  • 250900Z 01002KT 9999 FEW045 22/15 Q1017
  • 250830Z 29002KT 9999 FEW045 22/16 Q1018
  • 250800Z VRB02KT 9999 -RA FEW045 20/16 Q1018
  • 250730Z 11001KT CAVOK 19/15 Q1018
  • 250700Z 00000KT CAVOK 18/15 Q1018
  • 250630Z VRB01KT CAVOK 18/15 Q1018

TAF TAF LEPP
Valid from the 25 at 09:00 until the 26 at 09:00 UTC


250800Z 2509/2609 15010KT 9999 FEW030 TX36/2516Z TN22/2602Z
TEMPO 2518/2523 30015KT
BECMG 2522/2524 VRB05KT
BECMG 2606/2608 15012KT
No reported NOTAMs for that airfield.



MET'MAP, your aeronautical weather chart ! - Copyright ORBIFLY December 2007 - Disclaimer

ORBIFLY MET'MAP TEAM :

Programming & Development : Alexandra Zaïnal
Concept & Development : Baudouin d'Aumeries
Co-Development & Prog : Marc-Olivier Méhu
Technical & hardware support : Manuel Goepfert

Contact : metmap@orbifly.com




SOURCES & CREDITS :

   NOAA